Time;durP1;ratioP1;P1;durP2;ratioP2;P2;SDS_P1;SDS_P2;PMS_P1;PMS_P2;Temp;Humidity;BMP_temperature;BMP_pressure;BME280_temperature;BME280_humidity;BME280_pressure;Samples;Min_cycle;Max_cycle;Signal;HPM_P1;HPM_P2
2023/08/01 00:00:00;;;;;;;;;;;;;;;18.59;79.07;96997.38;5034946;28;19925;-59
2023/08/01 00:02:28;;;;;;;;;;;;;;;18.58;79.32;96985.56;5053205;28;19929;-60
2023/08/01 00:04:55;;;;;;;;;;;;;;;18.56;79.08;96981.63;5048237;28;19925;-60
2023/08/01 00:07:24;;;;;;;;;;;;;;;18.51;78.98;96977.28;5051979;28;20271;-60
2023/08/01 00:09:51;;;;;;;;;;;;;;;18.38;79.91;96981.56;5060599;28;20382;-59
2023/08/01 00:12:19;;;;;;;;;;;;;;;18.47;79.71;96973.72;5044587;28;19960;-60
2023/08/01 00:14:51;;;;;;;;;;;;;;;18.49;79.52;96971.41;5053195;28;19960;-60
2023/08/01 00:17:21;;;;;;;;;;;;;;;18.43;79.97;96972.13;5049249;28;19925;-59
2023/08/01 00:19:49;;;;;;;;;;;;;;;18.46;79.53;96968.63;5051161;28;19939;-59
2023/08/01 00:22:17;;;;;;;;;;;;;;;18.42;79.76;96967.81;5050033;28;19924;-59
2023/08/01 00:24:47;;;;;;;;;;;;;;;18.21;80.62;96972.00;5044484;28;19933;-60
2023/08/01 00:27:15;;;;;;;;;;;;;;;18.35;80.38;96971.31;5053605;28;20032;-60
2023/08/01 00:29:42;;;;;;;;;;;;;;;18.26;80.41;96973.63;5047071;28;19929;-59
2023/08/01 00:32:12;;;;;;;;;;;;;;;18.19;81.79;96979.09;5047983;28;19990;-59
2023/08/01 00:34:42;;;;;;;;;;;;;;;18.27;80.51;96970.50;5048065;28;19925;-61
2023/08/01 00:37:10;;;;;;;;;;;;;;;18.29;80.82;96970.91;5047170;28;19928;-59
2023/08/01 00:39:37;;;;;;;;;;;;;;;18.26;80.82;96963.41;5051319;28;19931;-61
2023/08/01 00:42:05;;;;;;;;;;;;;;;18.31;80.59;96965.00;5048637;28;19929;-59
2023/08/01 00:44:33;;;;;;;;;;;;;;;18.32;80.60;96956.41;5044933;28;20395;-59
2023/08/01 00:47:01;;;;;;;;;;;;;;;18.29;80.21;96948.91;5043184;28;19925;-59
2023/08/01 00:49:30;;;;;;;;;;;;;;;18.27;80.32;96954.00;5049382;28;19929;-59
2023/08/01 00:52:02;;;;;;;;;;;;;;;18.24;80.52;96949.25;5055475;28;19951;-61
2023/08/01 00:54:35;;;;;;;;;;;;;;;18.19;80.85;96941.38;5047822;28;19924;-59
2023/08/01 00:57:04;;;;;;;;;;;;;;;18.24;80.49;96935.53;5051531;28;19929;-61
2023/08/01 00:59:31;;;;;;;;;;;;;;;18.21;80.91;96938.25;5043836;28;20312;-59
2023/08/01 01:01:59;;;;;;;;;;;;;;;18.27;80.56;96931.22;5045185;28;19925;-59
2023/08/01 01:04:27;;;;;;;;;;;;;;;18.20;80.92;96931.97;5042716;28;20623;-60
2023/08/01 01:06:58;;;;;;;;;;;;;;;18.21;81.09;96921.75;5053251;28;19931;-60
2023/08/01 01:09:28;;;;;;;;;;;;;;;18.20;80.68;96914.69;5045978;28;20836;-60
2023/08/01 01:11:56;;;;;;;;;;;;;;;18.24;80.70;96915.50;5044408;28;19929;-59
2023/08/01 01:14:24;;;;;;;;;;;;;;;18.18;81.05;96914.28;5042919;28;19925;-60
2023/08/01 01:16:52;;;;;;;;;;;;;;;18.12;81.52;96911.13;5047419;28;20271;-60
2023/08/01 01:19:20;;;;;;;;;;;;;;;18.16;81.19;96909.16;5047668;28;19959;-59
2023/08/01 01:21:49;;;;;;;;;;;;;;;18.12;81.30;96910.34;5047956;28;19932;-59
2023/08/01 01:24:17;;;;;;;;;;;;;;;18.10;81.48;96902.44;5045930;28;20389;-64
2023/08/01 01:26:45;;;;;;;;;;;;;;;18.14;81.24;96902.47;5048026;28;19969;-60
2023/08/01 01:29:13;;;;;;;;;;;;;;;18.13;81.39;96898.94;5048944;28;19931;-59
2023/08/01 01:31:41;;;;;;;;;;;;;;;18.10;81.56;96894.22;5049276;28;19932;-60
2023/08/01 01:34:09;;;;;;;;;;;;;;;18.06;81.43;96887.94;5042032;28;20425;-60
2023/08/01 01:36:37;;;;;;;;;;;;;;;18.09;81.34;96880.84;5050181;28;20377;-60
2023/08/01 01:39:07;;;;;;;;;;;;;;;18.05;81.66;96875.34;5058493;28;20413;-61
2023/08/01 01:41:35;;;;;;;;;;;;;;;18.09;81.15;96876.16;5049495;28;19982;-59
2023/08/01 01:44:03;;;;;;;;;;;;;;;18.08;81.46;96873.78;5041181;28;19975;-62
2023/08/01 01:46:31;;;;;;;;;;;;;;;18.12;81.04;96869.88;5048106;28;19964;-60
2023/08/01 01:48:59;;;;;;;;;;;;;;;18.13;81.00;96870.66;5048164;28;19967;-59
2023/08/01 01:51:27;;;;;;;;;;;;;;;18.14;80.92;96866.75;5045736;28;19943;-59
2023/08/01 01:53:55;;;;;;;;;;;;;;;18.17;81.04;96866.00;5054720;28;19982;-59
2023/08/01 01:56:24;;;;;;;;;;;;;;;18.16;80.62;96862.44;5049718;28;20252;-60
2023/08/01 01:58:53;;;;;;;;;;;;;;;18.15;80.79;96852.59;5062494;28;20271;-59
2023/08/01 02:01:21;;;;;;;;;;;;;;;18.16;81.09;96856.94;5052778;28;19956;-59
2023/08/01 02:03:49;;;;;;;;;;;;;;;18.11;81.30;96851.81;5047151;28;19931;-60
2023/08/01 02:06:17;;;;;;;;;;;;;;;18.12;80.51;96850.66;5048601;28;19928;-60
2023/08/01 02:08:45;;;;;;;;;;;;;;;18.13;80.98;96846.72;5045417;28;19925;-60
2023/08/01 02:11:13;;;;;;;;;;;;;;;18.08;81.65;96841.59;5042668;28;19925;-60
2023/08/01 02:13:43;;;;;;;;;;;;;;;18.04;81.33;96827.81;5046414;28;19928;-59
2023/08/01 02:16:13;;;;;;;;;;;;;;;18.05;81.57;96825.88;5056451;28;20022;-59
2023/08/01 02:18:40;;;;;;;;;;;;;;;18.01;81.70;96814.09;5062071;28;19928;-60
2023/08/01 02:21:08;;;;;;;;;;;;;;;18.01;82.33;96808.59;5047690;28;19925;-60
2023/08/01 02:23:37;;;;;;;;;;;;;;;18.00;82.76;96793.25;5040277;28;20446;-59
2023/08/01 02:26:07;;;;;;;;;;;;;;;17.92;81.76;96788.91;5051342;28;20320;-59
2023/08/01 02:28:35;;;;;;;;;;;;;;;17.99;81.96;96775.19;5043508;28;19932;-59
2023/08/01 02:31:04;;;;;;;;;;;;;;;17.98;82.70;96770.88;5048737;28;19968;-62
2023/08/01 02:33:32;;;;;;;;;;;;;;;18.01;82.60;96770.13;5052990;28;19925;-61
2023/08/01 02:36:01;;;;;;;;;;;;;;;18.04;82.63;96775.59;5052036;28;20007;-61
2023/08/01 02:38:29;;;;;;;;;;;;;;;18.07;82.73;96771.31;5048299;28;19925;-60
2023/08/01 02:40:58;;;;;;;;;;;;;;;18.06;82.66;96769.75;5045702;28;19940;-59
2023/08/01 02:43:26;;;;;;;;;;;;;;;18.09;82.80;96768.16;5051387;28;20388;-60
2023/08/01 02:45:54;;;;;;;;;;;;;;;18.06;82.81;96753.25;5052241;28;20616;-59
2023/08/01 02:48:23;;;;;;;;;;;;;;;18.03;82.85;96754.81;5040316;28;19925;-60
2023/08/01 02:50:51;;;;;;;;;;;;;;;18.00;82.45;96757.53;5047391;28;19924;-61
2023/08/01 02:53:19;;;;;;;;;;;;;;;17.95;82.82;96750.47;5044997;28;19979;-60
2023/08/01 02:55:47;;;;;;;;;;;;;;;17.87;83.52;96759.84;5052217;28;19979;-60
2023/08/01 02:58:15;;;;;;;;;;;;;;;17.95;83.26;96752.41;5043766;28;20019;-60
2023/08/01 03:00:43;;;;;;;;;;;;;;;17.90;83.47;96758.31;5047772;28;20023;-59
2023/08/01 03:03:11;;;;;;;;;;;;;;;17.91;82.87;96762.63;5049378;28;20019;-60
2023/08/01 03:05:40;;;;;;;;;;;;;;;17.93;82.51;96758.31;5070150;28;19928;-59
2023/08/01 03:08:08;;;;;;;;;;;;;;;17.90;82.94;96783.03;5041665;28;19929;-61
2023/08/01 03:10:36;;;;;;;;;;;;;;;17.88;83.15;96772.41;5050664;28;19929;-59
2023/08/01 03:13:04;;;;;;;;;;;;;;;17.86;82.87;96782.22;5037199;28;19925;-59
2023/08/01 03:15:32;;;;;;;;;;;;;;;17.91;82.96;96777.16;5047902;28;19952;-59
2023/08/01 03:18:00;;;;;;;;;;;;;;;17.95;82.92;96788.13;5048174;28;19925;-60
2023/08/01 03:20:28;;;;;;;;;;;;;;;17.96;82.85;96781.47;5050304;28;20394;-60
2023/08/01 03:22:59;;;;;;;;;;;;;;;17.91;83.00;96787.34;5053306;28;19928;-60
2023/08/01 03:25:26;;;;;;;;;;;;;;;17.90;83.26;96781.06;5052767;28;20282;-60
2023/08/01 03:27:55;;;;;;;;;;;;;;;17.91;82.90;96779.09;5049356;28;19925;-60
2023/08/01 03:30:23;;;;;;;;;;;;;;;17.93;82.94;96757.50;5046811;28;19936;-60
2023/08/01 03:32:50;;;;;;;;;;;;;;;17.88;83.61;96761.41;5050437;28;20284;-59
2023/08/01 03:35:18;;;;;;;;;;;;;;;17.77;84.02;96763.34;5048572;28;20385;-61
2023/08/01 03:37:46;;;;;;;;;;;;;;;17.83;84.27;96758.25;5048990;28;19928;-61
2023/08/01 03:40:16;;;;;;;;;;;;;;;17.88;84.37;96755.94;5050833;28;20366;-60
2023/08/01 03:42:44;;;;;;;;;;;;;;;17.79;84.34;96748.06;5057115;28;19925;-60
2023/08/01 03:45:12;;;;;;;;;;;;;;;17.68;84.45;96747.19;5047393;28;20012;-60
2023/08/01 03:47:39;;;;;;;;;;;;;;;17.74;84.71;96740.19;5051084;28;19931;-59
2023/08/01 03:50:07;;;;;;;;;;;;;;;17.71;84.87;96738.19;5046079;28;20372;-61
2023/08/01 03:52:35;;;;;;;;;;;;;;;17.74;84.67;96734.69;5048274;28;19925;-59
2023/08/01 03:55:06;;;;;;;;;;;;;;;17.66;84.33;96727.56;5049783;28;19928;-60
2023/08/01 03:57:35;;;;;;;;;;;;;;;17.70;84.57;96722.88;5041913;28;19948;-59
2023/08/01 04:00:04;;;;;;;;;;;;;;;17.74;84.79;96715.47;5053178;28;19925;-60
2023/08/01 04:02:39;;;;;;;;;;;;;;;17.72;84.75;96715.06;5051903;28;19931;-60
2023/08/01 04:05:08;;;;;;;;;;;;;;;17.79;84.96;96706.06;5045249;28;19929;-60
2023/08/01 04:07:36;;;;;;;;;;;;;;;17.80;84.55;96707.63;5049582;28;20011;-60
2023/08/01 04:10:05;;;;;;;;;;;;;;;17.74;84.53;96701.75;5046280;28;19957;-60
2023/08/01 04:12:33;;;;;;;;;;;;;;;17.69;84.64;96704.03;5046940;28;19924;-59
2023/08/01 04:15:19;;;;;;;;;;;;;;;17.69;84.99;96709.53;5047419;28;19925;-60
2023/08/01 04:17:57;;;;;;;;;;;;;;;17.67;84.39;96703.63;5048716;28;19932;-61
2023/08/01 04:20:25;;;;;;;;;;;;;;;17.73;84.49;96707.59;5047078;28;19925;-60
2023/08/01 04:22:52;;;;;;;;;;;;;;;17.73;84.02;96702.09;5045499;28;19929;-60
2023/08/01 04:25:20;;;;;;;;;;;;;;;17.72;83.95;96698.56;5047361;28;19925;-61
2023/08/01 04:27:48;;;;;;;;;;;;;;;17.76;83.50;96693.88;5046043;28;19928;-60
2023/08/01 04:30:16;;;;;;;;;;;;;;;17.65;83.57;96695.78;5045619;28;19929;-60
2023/08/01 04:32:45;;;;;;;;;;;;;;;17.70;83.67;96689.91;5052369;28;19931;-60
2023/08/01 04:35:13;;;;;;;;;;;;;;;17.70;83.66;96683.63;5053770;28;19925;-60
2023/08/01 04:37:41;;;;;;;;;;;;;;;17.73;83.37;96682.88;5049320;28;19993;-59
2023/08/01 04:40:09;;;;;;;;;;;;;;;17.70;83.59;96673.44;5047325;28;20386;-60
2023/08/01 04:42:37;;;;;;;;;;;;;;;17.72;83.40;96654.63;5044598;28;19935;-62
2023/08/01 04:45:06;;;;;;;;;;;;;;;17.63;83.51;96664.38;5049992;28;19924;-60
2023/08/01 04:47:35;;;;;;;;;;;;;;;17.71;83.66;96666.75;5050467;28;19925;-59
2023/08/01 04:50:04;;;;;;;;;;;;;;;17.68;83.84;96656.53;5048152;28;19924;-62
2023/08/01 04:52:32;;;;;;;;;;;;;;;17.64;84.18;96653.00;5048626;28;19925;-60
2023/08/01 04:55:00;;;;;;;;;;;;;;;17.79;83.65;96645.63;5049035;28;19933;-59
2023/08/01 04:57:28;;;;;;;;;;;;;;;17.70;83.74;96651.47;5061956;28;19925;-60
2023/08/01 04:59:55;;;;;;;;;;;;;;;17.75;83.50;96648.38;5042562;28;19924;-60
2023/08/01 05:02:23;;;;;;;;;;;;;;;17.77;83.37;96656.22;5049429;28;20023;-59
2023/08/01 05:04:52;;;;;;;;;;;;;;;17.72;84.40;96653.81;5045835;28;19925;-60
2023/08/01 05:07:21;;;;;;;;;;;;;;;17.73;84.26;96650.69;5045285;28;19929;-61
2023/08/01 05:09:49;;;;;;;;;;;;;;;17.73;83.69;96656.19;5047843;28;20015;-60
2023/08/01 05:12:17;;;;;;;;;;;;;;;17.68;84.24;96666.75;5043591;28;20640;-61
2023/08/01 05:14:44;;;;;;;;;;;;;;;17.63;83.88;96656.13;5045201;28;19925;-62
2023/08/01 05:17:12;;;;;;;;;;;;;;;17.73;83.61;96661.69;5045248;28;19929;-62
2023/08/01 05:19:40;;;;;;;;;;;;;;;17.73;83.17;96669.94;5048810;28;19925;-60
2023/08/01 05:22:08;;;;;;;;;;;;;;;17.68;83.31;96664.78;5048248;28;19978;-61
2023/08/01 05:24:37;;;;;;;;;;;;;;;17.71;83.89;96672.25;5046950;28;19924;-59
2023/08/01 05:27:06;;;;;;;;;;;;;;;17.72;83.28;96670.28;5045695;28;19932;-61
2023/08/01 05:29:33;;;;;;;;;;;;;;;17.70;83.45;96665.19;5044833;28;19931;-59
2023/08/01 05:32:01;;;;;;;;;;;;;;;17.72;83.32;96662.06;5043489;28;19925;-60
2023/08/01 05:34:29;;;;;;;;;;;;;;;17.75;83.69;96662.09;5045704;28;19933;-60
2023/08/01 05:36:57;;;;;;;;;;;;;;;17.74;83.95;96666.03;5042430;28;20342;-59
2023/08/01 05:39:25;;;;;;;;;;;;;;;17.70;83.68;96656.97;5035723;28;20002;-60
2023/08/01 05:41:54;;;;;;;;;;;;;;;17.70;83.72;96664.41;5038775;28;19929;-59
2023/08/01 05:44:22;;;;;;;;;;;;;;;17.77;83.59;96667.97;5048725;28;19924;-59
2023/08/01 05:46:50;;;;;;;;;;;;;;;17.81;83.35;96673.50;5040855;28;20018;-60
2023/08/01 05:49:18;;;;;;;;;;;;;;;17.79;82.93;96676.63;5041907;28;20047;-59
2023/08/01 05:51:46;;;;;;;;;;;;;;;17.85;83.52;96668.03;5044086;28;20267;-60
2023/08/01 05:54:14;;;;;;;;;;;;;;;17.84;83.00;96669.16;5040308;28;19924;-59
2023/08/01 05:56:41;;;;;;;;;;;;;;;17.84;84.00;96671.91;5037804;28;20400;-59
2023/08/01 05:59:11;;;;;;;;;;;;;;;17.90;83.33;96675.88;5042499;28;19977;-59
2023/08/01 06:01:39;;;;;;;;;;;;;;;17.84;83.48;96667.19;5043916;28;19929;-59
2023/08/01 06:04:06;;;;;;;;;;;;;;;17.79;83.09;96676.63;5044166;28;20304;-60
2023/08/01 06:06:35;;;;;;;;;;;;;;;17.88;83.19;96672.72;5053199;28;20370;-60
2023/08/01 06:09:03;;;;;;;;;;;;;;;17.89;83.54;96675.06;5050640;28;19924;-62
2023/08/01 06:11:30;;;;;;;;;;;;;;;17.88;83.49;96670.75;5053862;28;19925;-59
2023/08/01 06:13:58;;;;;;;;;;;;;;;17.92;83.27;96668.81;5040440;28;20026;-59
2023/08/01 06:16:27;;;;;;;;;;;;;;;17.90;83.36;96662.16;5045218;28;19983;-59
2023/08/01 06:18:56;;;;;;;;;;;;;;;17.92;83.61;96668.81;5044922;28;19964;-59
2023/08/01 06:21:24;;;;;;;;;;;;;;;17.93;83.77;96672.34;5039858;28;19929;-59
2023/08/01 06:23:51;;;;;;;;;;;;;;;17.90;83.92;96675.88;5052043;28;19929;-60
2023/08/01 06:26:19;;;;;;;;;;;;;;;17.94;84.13;96671.94;5045000;28;20304;-60
2023/08/01 06:28:47;;;;;;;;;;;;;;;17.90;84.21;96675.88;5038979;28;19931;-60
2023/08/01 06:31:15;;;;;;;;;;;;;;;17.95;84.33;96679.03;5049922;28;19925;-59
2023/08/01 06:33:44;;;;;;;;;;;;;;;17.96;84.65;96691.59;5045451;28;19931;-60
2023/08/01 06:36:12;;;;;;;;;;;;;;;17.93;84.70;96697.06;5045360;28;20352;-60
2023/08/01 06:38:43;;;;;;;;;;;;;;;17.96;84.76;96704.53;5046597;28;19925;-60
2023/08/01 06:41:11;;;;;;;;;;;;;;;17.96;84.38;96693.56;5054307;28;19928;-60
2023/08/01 06:43:39;;;;;;;;;;;;;;;17.98;84.07;96699.44;5057728;28;19925;-60
2023/08/01 06:46:07;;;;;;;;;;;;;;;17.92;84.63;96707.28;5053641;28;19947;-60
2023/08/01 06:48:35;;;;;;;;;;;;;;;17.91;85.56;96700.22;5052492;28;19925;-60
2023/08/01 06:51:04;;;;;;;;;;;;;;;17.93;85.40;96692.34;5049666;28;19954;-60
2023/08/01 06:53:32;;;;;;;;;;;;;;;17.90;85.50;96695.13;5048567;28;19937;-60
2023/08/01 06:55:59;;;;;;;;;;;;;;;17.93;85.96;96697.06;5049172;28;19932;-60
2023/08/01 06:58:28;;;;;;;;;;;;;;;17.97;85.96;96708.88;5055420;28;20328;-60
2023/08/01 07:00:56;;;;;;;;;;;;;;;17.88;85.85;96711.97;5045194;28;19932;-59
2023/08/01 07:03:24;;;;;;;;;;;;;;;17.92;85.78;96717.47;5046174;28;19928;-60
2023/08/01 07:05:52;;;;;;;;;;;;;;;17.95;86.24;96705.69;5050507;28;19924;-61
2023/08/01 07:08:21;;;;;;;;;;;;;;;17.90;86.58;96714.34;5052647;28;19973;-59
2023/08/01 07:10:50;;;;;;;;;;;;;;;17.87;86.59;96706.88;5052216;28;19929;-59
2023/08/01 07:13:19;;;;;;;;;;;;;;;17.92;86.70;96690.78;5050495;28;19932;-59
2023/08/01 07:15:47;;;;;;;;;;;;;;;17.93;86.93;96691.56;5050217;28;19940;-61
2023/08/01 07:18:15;;;;;;;;;;;;;;;17.91;87.14;96688.44;5051550;28;20352;-60
2023/08/01 07:20:43;;;;;;;;;;;;;;;17.92;87.21;96687.25;5049786;28;19939;-62
2023/08/01 07:23:11;;;;;;;;;;;;;;;17.94;87.43;96682.16;5055931;28;19928;-61
2023/08/01 07:25:40;;;;;;;;;;;;;;;17.93;87.76;96677.84;5047578;28;19984;-60
2023/08/01 07:28:08;;;;;;;;;;;;;;;17.97;87.96;96676.66;5050714;28;19929;-59
2023/08/01 07:30:36;;;;;;;;;;;;;;;17.93;87.94;96681.38;5047416;28;19982;-60
2023/08/01 07:33:03;;;;;;;;;;;;;;;17.99;87.81;96679.03;5047462;28;19928;-59
2023/08/01 07:35:31;;;;;;;;;;;;;;;18.02;88.18;96678.25;5049372;28;19959;-60
2023/08/01 07:37:59;;;;;;;;;;;;;;;17.98;88.45;96671.97;5051263;28;19936;-61
2023/08/01 07:40:27;;;;;;;;;;;;;;;17.95;88.21;96678.22;5059031;28;19958;-60
2023/08/01 07:42:56;;;;;;;;;;;;;;;17.90;88.53;96684.13;5037708;28;20437;-61
2023/08/01 07:45:24;;;;;;;;;;;;;;;17.93;88.84;96681.38;5041466;28;20279;-60
2023/08/01 07:47:52;;;;;;;;;;;;;;;17.92;88.56;96671.56;5051436;28;19939;-60
2023/08/01 07:50:20;;;;;;;;;;;;;;;17.92;89.05;96673.53;5043834;28;19924;-60
2023/08/01 07:52:48;;;;;;;;;;;;;;;17.93;89.37;96681.38;5054927;28;19978;-61
2023/08/01 07:55:16;;;;;;;;;;;;;;;17.93;89.84;96686.84;5051903;28;19929;-60
2023/08/01 07:57:44;;;;;;;;;;;;;;;17.91;90.20;96689.22;5043378;28;19950;-61
2023/08/01 08:00:14;;;;;;;;;;;;;;;17.91;89.93;96685.69;5043829;28;20281;-61
2023/08/01 08:02:42;;;;;;;;;;;;;;;17.92;90.12;96679.00;5044319;28;19928;-62
2023/08/01 08:05:10;;;;;;;;;;;;;;;17.91;89.97;96666.47;5042766;28;19931;-60
2023/08/01 08:07:38;;;;;;;;;;;;;;;17.94;90.02;96660.16;5044440;28;20296;-59
2023/08/01 08:10:06;;;;;;;;;;;;;;;17.94;89.84;96657.41;5041658;28;20263;-60
2023/08/01 08:12:34;;;;;;;;;;;;;;;17.97;89.81;96657.44;5047486;28;19929;-61
2023/08/01 08:15:04;;;;;;;;;;;;;;;17.96;89.72;96653.13;5041204;28;19932;-60
2023/08/01 08:17:35;;;;;;;;;;;;;;;17.94;89.26;96651.91;5047803;28;19948;-61
2023/08/01 08:20:06;;;;;;;;;;;;;;;17.96;89.43;96655.09;5046500;28;19955;-60
2023/08/01 08:22:33;;;;;;;;;;;;;;;17.93;88.32;96664.88;5051477;28;19931;-60
2023/08/01 08:25:01;;;;;;;;;;;;;;;17.95;88.38;96669.97;5046528;28;19999;-60
2023/08/01 08:27:29;;;;;;;;;;;;;;;17.92;87.27;96679.00;5053574;28;19925;-60
2023/08/01 08:29:57;;;;;;;;;;;;;;;17.86;86.65;96689.59;5037045;28;20374;-61
2023/08/01 08:32:25;;;;;;;;;;;;;;;17.86;86.41;96706.09;5048179;28;20456;-60
2023/08/01 08:34:54;;;;;;;;;;;;;;;17.80;86.40;96699.41;5051610;28;19933;-60
2023/08/01 08:37:22;;;;;;;;;;;;;;;17.79;85.70;96720.59;5042158;28;20298;-60
2023/08/01 08:39:50;;;;;;;;;;;;;;;17.79;85.32;96723.34;5041466;28;19925;-60
2023/08/01 08:42:18;;;;;;;;;;;;;;;17.69;85.45;96717.78;5048667;28;19925;-59
2023/08/01 08:44:46;;;;;;;;;;;;;;;17.57;83.87;96707.91;5057757;28;19980;-60
2023/08/01 08:47:14;;;;;;;;;;;;;;;17.72;84.55;96709.56;5056370;28;19931;-60
2023/08/01 08:49:42;;;;;;;;;;;;;;;17.76;84.30;96709.59;5046836;28;19924;-60
2023/08/01 08:52:11;;;;;;;;;;;;;;;17.63;83.91;96698.13;5045594;28;19935;-59
2023/08/01 08:54:39;;;;;;;;;;;;;;;17.57;84.20;96663.19;5043495;28;19925;-59
2023/08/01 08:57:07;;;;;;;;;;;;;;;17.57;84.14;96614.53;5036410;28;20310;-59
2023/08/01 08:59:35;;;;;;;;;;;;;;;17.58;84.55;96582.38;5047571;28;19925;-60
2023/08/01 09:02:04;;;;;;;;;;;;;;;17.58;84.92;96605.13;5048556;28;19929;-60
2023/08/01 09:04:32;;;;;;;;;;;;;;;17.45;84.41;96598.41;5048441;28;20373;-59
2023/08/01 09:07:01;;;;;;;;;;;;;;;17.54;85.19;96599.63;5045752;28;19924;-60
2023/08/01 09:09:31;;;;;;;;;;;;;;;17.53;85.07;96627.50;5048661;28;19956;-60
2023/08/01 09:11:59;;;;;;;;;;;;;;;17.54;85.62;96631.81;5037755;28;19925;-59
2023/08/01 09:14:27;;;;;;;;;;;;;;;17.61;85.63;96637.31;5056995;28;19924;-59
2023/08/01 09:16:55;;;;;;;;;;;;;;;17.63;86.16;96645.16;5057483;28;19924;-60
2023/08/01 09:19:24;;;;;;;;;;;;;;;17.65;86.07;96637.31;5054325;28;20031;-59
2023/08/01 09:21:52;;;;;;;;;;;;;;;17.64;85.43;96635.75;5053316;28;20362;-60
2023/08/01 09:24:20;;;;;;;;;;;;;;;17.70;85.46;96640.47;5046301;28;19935;-59
2023/08/01 09:26:50;;;;;;;;;;;;;;;17.78;86.65;96642.06;5056821;28;19935;-59
2023/08/01 09:29:18;;;;;;;;;;;;;;;17.74;85.76;96655.03;5050151;28;19955;-59
2023/08/01 09:31:46;;;;;;;;;;;;;;;17.78;85.14;96663.28;5050999;28;19935;-61
2023/08/01 09:34:20;;;;;;;;;;;;;;;17.75;85.23;96648.38;5047915;28;19933;-60
2023/08/01 09:36:50;;;;;;;;;;;;;;;17.77;84.56;96646.00;5043972;28;19946;-59
2023/08/01 09:39:19;;;;;;;;;;;;;;;17.89;84.75;96663.28;5054285;28;20000;-59
2023/08/01 09:41:47;;;;;;;;;;;;;;;17.91;85.00;96647.22;5049238;28;19977;-60
2023/08/01 09:44:17;;;;;;;;;;;;;;;17.90;83.97;96654.69;5049805;28;20374;-60
2023/08/01 09:46:45;;;;;;;;;;;;;;;17.90;83.43;96656.66;5035841;28;19956;-60
2023/08/01 09:49:13;;;;;;;;;;;;;;;18.02;83.71;96656.28;5043818;28;20358;-60
2023/08/01 09:51:47;;;;;;;;;;;;;;;17.96;82.42;96657.84;5045086;28;19931;-60
2023/08/01 09:54:15;;;;;;;;;;;;;;;18.04;83.08;96656.66;5047055;28;19932;-60
2023/08/01 09:56:44;;;;;;;;;;;;;;;17.93;81.22;96644.84;5045779;28;20015;-60
2023/08/01 09:59:12;;;;;;;;;;;;;;;17.93;81.45;96642.91;5041746;28;19933;-60
2023/08/01 10:01:41;;;;;;;;;;;;;;;17.96;82.38;96655.09;5045025;28;19924;-59
2023/08/01 10:04:09;;;;;;;;;;;;;;;17.99;82.44;96657.81;5048035;28;19932;-59
2023/08/01 10:06:38;;;;;;;;;;;;;;;17.92;81.63;96651.53;5040269;28;19932;-61
2023/08/01 10:09:26;;;;;;;;;;;;;;;17.96;82.16;96641.34;5045118;28;19925;-60
2023/08/01 10:11:54;;;;;;;;;;;;;;;17.99;81.80;96643.28;5046810;28;19990;-59
2023/08/01 10:14:21;;;;;;;;;;;;;;;18.06;82.23;96648.81;5049705;28;19932;-60
2023/08/01 10:16:52;;;;;;;;;;;;;;;18.19;81.97;96641.75;5074154;28;20309;-60
2023/08/01 10:19:20;;;;;;;;;;;;;;;18.20;81.79;96650.78;5052354;28;19925;-59
2023/08/01 10:21:48;;;;;;;;;;;;;;;18.19;81.67;96661.00;5045222;28;19925;-60
2023/08/01 10:24:17;;;;;;;;;;;;;;;18.13;81.30;96651.56;5042522;28;20390;-59
2023/08/01 10:26:45;;;;;;;;;;;;;;;18.10;82.06;96654.31;5058819;28;19956;-59
2023/08/01 10:29:13;;;;;;;;;;;;;;;18.23;82.07;96664.53;5046738;28;19925;-60
2023/08/01 10:31:52;;;;;;;;;;;;;;;18.19;81.62;96647.25;5047564;28;19932;-60
2023/08/01 10:34:22;;;;;;;;;;;;;;;18.29;81.90;96656.69;5052645;28;19928;-59
2023/08/01 10:36:55;;;;;;;;;;;;;;;18.33;82.34;96649.22;5048731;28;19925;-60
2023/08/01 10:39:24;;;;;;;;;;;;;;;18.38;81.58;96646.09;5048145;28;19967;-59
2023/08/01 10:41:57;;;;;;;;;;;;;;;18.38;81.22;96648.84;5040172;28;20639;-60
2023/08/01 10:44:25;;;;;;;;;;;;;;;18.38;81.21;96646.09;5052403;28;19931;-62
2023/08/01 10:46:55;;;;;;;;;;;;;;;18.45;81.89;96643.31;5050798;28;19928;-60
2023/08/01 10:49:34;;;;;;;;;;;;;;;18.48;81.60;96650.00;5046129;28;19939;-60
2023/08/01 10:52:02;;;;;;;;;;;;;;;18.42;80.15;96652.34;5049498;28;20298;-60
2023/08/01 10:54:34;;;;;;;;;;;;;;;18.41;80.53;96650.78;5042748;28;19931;-60
2023/08/01 10:57:02;;;;;;;;;;;;;;;18.42;80.51;96648.81;5053453;28;20464;-60
2023/08/01 10:59:29;;;;;;;;;;;;;;;18.49;80.56;96646.09;5042638;28;19929;-61
2023/08/01 11:02:00;;;;;;;;;;;;;;;18.50;80.85;96636.66;5045158;28;19925;-60
2023/08/01 11:04:28;;;;;;;;;;;;;;;18.49;80.55;96641.38;5050162;28;19952;-60
2023/08/01 11:06:56;;;;;;;;;;;;;;;18.54;80.02;96645.69;5046927;28;19932;-59
2023/08/01 11:09:25;;;;;;;;;;;;;;;18.54;79.87;96649.22;5055886;28;20522;-60
2023/08/01 11:11:54;;;;;;;;;;;;;;;18.61;80.07;96648.44;5055807;28;19997;-61
2023/08/01 11:14:22;;;;;;;;;;;;;;;18.71;79.70;96652.38;5050492;28;19933;-60
2023/08/01 11:16:50;;;;;;;;;;;;;;;18.76;79.88;96655.50;5045149;28;20389;-59
2023/08/01 11:19:20;;;;;;;;;;;;;;;18.78;78.95;96653.16;5043837;28;19925;-60
2023/08/01 11:21:48;;;;;;;;;;;;;;;18.83;78.50;96649.22;5047479;28;19925;-60
2023/08/01 11:24:16;;;;;;;;;;;;;;;18.94;78.36;96651.94;5047039;28;19931;-60
2023/08/01 11:26:44;;;;;;;;;;;;;;;18.88;77.26;96653.53;5041769;28;19925;-60
2023/08/01 11:29:12;;;;;;;;;;;;;;;18.83;76.82;96657.47;5054509;28;20301;-59
2023/08/01 11:31:40;;;;;;;;;;;;;;;18.81;77.04;96668.88;5051441;28;20301;-60
2023/08/01 11:34:09;;;;;;;;;;;;;;;18.84;76.49;96654.31;5048321;28;20020;-59
2023/08/01 11:36:41;;;;;;;;;;;;;;;18.87;77.44;96654.72;5050744;28;19925;-59
2023/08/01 11:39:09;;;;;;;;;;;;;;;18.89;76.89;96655.88;5052699;28;19925;-60
2023/08/01 11:41:37;;;;;;;;;;;;;;;18.84;74.91;96646.06;5040727;28;19924;-60
2023/08/01 11:44:06;;;;;;;;;;;;;;;18.93;75.85;96642.13;5046561;28;19974;-60
2023/08/01 11:46:34;;;;;;;;;;;;;;;18.94;77.23;96654.69;5046454;28;19931;-61
2023/08/01 11:49:02;;;;;;;;;;;;;;;18.87;75.45;96657.47;5050215;28;19931;-62
2023/08/01 11:51:30;;;;;;;;;;;;;;;18.81;74.82;96663.38;5057915;28;19971;-60
2023/08/01 11:54:00;;;;;;;;;;;;;;;18.82;74.32;96664.94;5049454;28;19932;-59
2023/08/01 11:56:31;;;;;;;;;;;;;;;18.76;73.41;96663.78;5052807;28;19925;-60
2023/08/01 11:58:59;;;;;;;;;;;;;;;18.73;73.76;96663.75;5044710;28;19928;-60
2023/08/01 12:01:28;;;;;;;;;;;;;;;18.72;73.43;96675.97;5046596;28;19935;-60
2023/08/01 12:03:58;;;;;;;;;;;;;;;18.77;73.55;96681.06;5041777;28;19940;-59
2023/08/01 12:06:26;;;;;;;;;;;;;;;18.75;70.53;96680.66;5056806;28;20024;-59
2023/08/01 12:08:53;;;;;;;;;;;;;;;18.72;68.47;96693.25;5052986;28;19925;-60
2023/08/01 12:11:23;;;;;;;;;;;;;;;18.65;65.87;96689.69;5046359;28;19968;-60
2023/08/01 12:14:00;;;;;;;;;;;;;;;18.59;66.25;96686.56;5046253;28;19936;-60
2023/08/01 12:16:28;;;;;;;;;;;;;;;18.54;64.61;96693.22;5055678;28;19924;-60
2023/08/01 12:18:56;;;;;;;;;;;;;;;18.58;64.97;96677.50;5055839;28;19939;-60
2023/08/01 12:21:27;;;;;;;;;;;;;;;18.62;63.68;96674.75;5046239;28;20444;-60
2023/08/01 12:23:55;;;;;;;;;;;;;;;18.62;63.17;96680.25;5047366;28;19928;-62
2023/08/01 12:26:24;;;;;;;;;;;;;;;18.67;61.29;96685.34;5040181;28;19929;-59
2023/08/01 12:28:52;;;;;;;;;;;;;;;18.75;62.58;96670.47;5046848;28;20286;-60
2023/08/01 12:31:20;;;;;;;;;;;;;;;18.83;62.27;96677.50;5048292;28;19957;-60
2023/08/01 12:33:48;;;;;;;;;;;;;;;18.89;61.37;96677.09;5047360;28;19925;-59
2023/08/01 12:36:16;;;;;;;;;;;;;;;18.94;60.72;96669.22;5038041;28;19925;-59
2023/08/01 12:38:44;;;;;;;;;;;;;;;19.03;61.80;96680.63;5048877;28;19974;-59
2023/08/01 12:41:12;;;;;;;;;;;;;;;19.03;62.23;96686.13;5064471;28;19951;-59
2023/08/01 12:43:42;;;;;;;;;;;;;;;19.08;61.32;96687.69;5044392;28;19937;-59
2023/08/01 12:46:09;;;;;;;;;;;;;;;19.16;64.54;96689.25;5050270;28;19978;-60
2023/08/01 12:48:37;;;;;;;;;;;;;;;19.21;62.12;96675.06;5041846;28;19978;-59
2023/08/01 12:51:05;;;;;;;;;;;;;;;19.23;62.38;96671.91;5048088;28;19929;-59
2023/08/01 12:53:35;;;;;;;;;;;;;;;19.26;58.86;96671.13;5042206;28;19925;-60